Thatta, Pakistan
Current Conditions -  °F | °C
As of 12:25 PM on Saturday 29 Nov 2014 (Local Time) from OPKC Reporting Station
Scattered Clouds Scattered Clouds  
Wind Chill: 29°   Ceiling: Unl
Heat Index: 29°   Visibility: 4mi
Dew Point: 16°   Wind: 5mph
Humidity: 45%   Direction: 150°SSE
Pressure: 29.94"   Gusts: NA
Location:  24.75°N, 67.92°E
Report Text: OPKC 290725Z 15004KT 6000 SCT030 29/16 Q1014 NOSIG
Loading
Personal Weather Stations






























Interactive Weather Map New forecast layout! Learn more

10-Day Weather Forecast

Advertisements
Track Severe Weather on mobile